sensor_id;sensor_type;location;lat;lon;timestamp;P1;durP1;ratioP1;P2;durP2;ratioP2
2177;SDS011;1095;50.992;6.798;2023-03-14T00:02:23;6.07;;;2.97;;
2177;SDS011;1095;50.992;6.798;2023-03-14T00:04:49;7.57;;;2.92;;
2177;SDS011;1095;50.992;6.798;2023-03-14T00:07:20;7.15;;;2.88;;
2177;SDS011;1095;50.992;6.798;2023-03-14T00:09:49;7.78;;;3.13;;
2177;SDS011;1095;50.992;6.798;2023-03-14T00:12:16;7.68;;;3.40;;
2177;SDS011;1095;50.992;6.798;2023-03-14T00:14:42;8.13;;;2.95;;
2177;SDS011;1095;50.992;6.798;2023-03-14T00:17:09;8.82;;;3.15;;
2177;SDS011;1095;50.992;6.798;2023-03-14T00:19:37;7.38;;;2.85;;
2177;SDS011;1095;50.992;6.798;2023-03-14T00:22:04;11.27;;;4.28;;
2177;SDS011;1095;50.992;6.798;2023-03-14T00:24:31;6.53;;;3.10;;
2177;SDS011;1095;50.992;6.798;2023-03-14T00:26:58;9.90;;;3.35;;
2177;SDS011;1095;50.992;6.798;2023-03-14T00:29:24;9.68;;;3.15;;
2177;SDS011;1095;50.992;6.798;2023-03-14T00:31:51;6.53;;;3.40;;
2177;SDS011;1095;50.992;6.798;2023-03-14T00:34:18;12.98;;;3.25;;
2177;SDS011;1095;50.992;6.798;2023-03-14T00:36:46;8.85;;;3.05;;
2177;SDS011;1095;50.992;6.798;2023-03-14T00:39:12;7.45;;;3.13;;
2177;SDS011;1095;50.992;6.798;2023-03-14T00:41:39;7.60;;;3.03;;
2177;SDS011;1095;50.992;6.798;2023-03-14T00:44:06;9.45;;;3.10;;
2177;SDS011;1095;50.992;6.798;2023-03-14T00:46:32;11.00;;;3.25;;
2177;SDS011;1095;50.992;6.798;2023-03-14T00:48:59;8.07;;;2.88;;
2177;SDS011;1095;50.992;6.798;2023-03-14T00:51:26;10.80;;;3.00;;
2177;SDS011;1095;50.992;6.798;2023-03-14T00:53:54;8.73;;;2.38;;
2177;SDS011;1095;50.992;6.798;2023-03-14T00:56:20;11.57;;;3.00;;
2177;SDS011;1095;50.992;6.798;2023-03-14T00:58:47;7.53;;;2.70;;
2177;SDS011;1095;50.992;6.798;2023-03-14T01:01:15;6.18;;;2.47;;
2177;SDS011;1095;50.992;6.798;2023-03-14T01:03:42;11.57;;;2.92;;
2177;SDS011;1095;50.992;6.798;2023-03-14T01:06:11;5.63;;;2.00;;
2177;SDS011;1095;50.992;6.798;2023-03-14T01:08:39;5.50;;;1.98;;
2177;SDS011;1095;50.992;6.798;2023-03-14T01:11:08;4.75;;;2.13;;
2177;SDS011;1095;50.992;6.798;2023-03-14T01:13:37;6.13;;;1.65;;
2177;SDS011;1095;50.992;6.798;2023-03-14T01:16:04;6.13;;;2.22;;
2177;SDS011;1095;50.992;6.798;2023-03-14T01:18:32;8.90;;;2.35;;
2177;SDS011;1095;50.992;6.798;2023-03-14T01:21:01;10.20;;;2.28;;
2177;SDS011;1095;50.992;6.798;2023-03-14T01:23:27;7.28;;;2.22;;
2177;SDS011;1095;50.992;6.798;2023-03-14T01:25:54;6.95;;;2.05;;
2177;SDS011;1095;50.992;6.798;2023-03-14T01:28:22;10.35;;;2.65;;
2177;SDS011;1095;50.992;6.798;2023-03-14T01:30:49;7.60;;;2.75;;
2177;SDS011;1095;50.992;6.798;2023-03-14T01:33:15;6.93;;;2.30;;
2177;SDS011;1095;50.992;6.798;2023-03-14T01:35:42;5.68;;;1.95;;
2177;SDS011;1095;50.992;6.798;2023-03-14T01:38:08;11.80;;;2.70;;
2177;SDS011;1095;50.992;6.798;2023-03-14T01:40:41;5.22;;;2.38;;
2177;SDS011;1095;50.992;6.798;2023-03-14T01:49:12;7.15;;;1.95;;
2177;SDS011;1095;50.992;6.798;2023-03-14T01:51:44;7.70;;;2.47;;
2177;SDS011;1095;50.992;6.798;2023-03-14T01:54:15;9.82;;;2.80;;
2177;SDS011;1095;50.992;6.798;2023-03-14T01:56:45;6.32;;;2.03;;
2177;SDS011;1095;50.992;6.798;2023-03-14T01:59:16;8.05;;;2.55;;
2177;SDS011;1095;50.992;6.798;2023-03-14T02:01:43;7.38;;;2.30;;
2177;SDS011;1095;50.992;6.798;2023-03-14T02:04:13;8.02;;;2.20;;
2177;SDS011;1095;50.992;6.798;2023-03-14T02:06:48;6.00;;;1.92;;
2177;SDS011;1095;50.992;6.798;2023-03-14T02:09:19;6.55;;;2.58;;
2177;SDS011;1095;50.992;6.798;2023-03-14T02:11:46;6.55;;;2.60;;
2177;SDS011;1095;50.992;6.798;2023-03-14T02:14:15;8.80;;;2.50;;
2177;SDS011;1095;50.992;6.798;2023-03-14T02:16:51;7.53;;;2.50;;
2177;SDS011;1095;50.992;6.798;2023-03-14T02:19:21;7.88;;;2.67;;
2177;SDS011;1095;50.992;6.798;2023-03-14T02:21:56;6.40;;;2.50;;
2177;SDS011;1095;50.992;6.798;2023-03-14T02:24:27;6.55;;;2.95;;
2177;SDS011;1095;50.992;6.798;2023-03-14T02:27:04;9.65;;;2.47;;
2177;SDS011;1095;50.992;6.798;2023-03-14T02:29:43;10.07;;;2.42;;
2177;SDS011;1095;50.992;6.798;2023-03-14T02:32:15;8.45;;;2.35;;
2177;SDS011;1095;50.992;6.798;2023-03-14T02:34:43;7.30;;;2.63;;
2177;SDS011;1095;50.992;6.798;2023-03-14T02:37:11;8.13;;;2.30;;
2177;SDS011;1095;50.992;6.798;2023-03-14T02:39:41;6.25;;;2.00;;
2177;SDS011;1095;50.992;6.798;2023-03-14T02:42:12;5.30;;;1.85;;
2177;SDS011;1095;50.992;6.798;2023-03-14T02:44:47;4.82;;;2.05;;
2177;SDS011;1095;50.992;6.798;2023-03-14T02:47:15;5.03;;;1.65;;
2177;SDS011;1095;50.992;6.798;2023-03-14T02:49:42;7.18;;;2.10;;
2177;SDS011;1095;50.992;6.798;2023-03-14T02:52:08;1.98;;;1.40;;
2177;SDS011;1095;50.992;6.798;2023-03-14T02:54:36;4.88;;;1.88;;
2177;SDS011;1095;50.992;6.798;2023-03-14T02:57:02;7.72;;;1.85;;
2177;SDS011;1095;50.992;6.798;2023-03-14T02:59:30;6.35;;;2.08;;
2177;SDS011;1095;50.992;6.798;2023-03-14T03:01:57;5.45;;;1.80;;
2177;SDS011;1095;50.992;6.798;2023-03-14T03:04:25;5.18;;;2.20;;
2177;SDS011;1095;50.992;6.798;2023-03-14T03:06:52;3.97;;;1.98;;
2177;SDS011;1095;50.992;6.798;2023-03-14T03:09:18;5.97;;;2.30;;
2177;SDS011;1095;50.992;6.798;2023-03-14T03:11:45;7.35;;;2.08;;
2177;SDS011;1095;50.992;6.798;2023-03-14T03:14:11;5.68;;;2.13;;
2177;SDS011;1095;50.992;6.798;2023-03-14T03:16:39;7.22;;;2.03;;
2177;SDS011;1095;50.992;6.798;2023-03-14T03:19:06;7.03;;;2.42;;
2177;SDS011;1095;50.992;6.798;2023-03-14T03:21:33;8.20;;;2.78;;
2177;SDS011;1095;50.992;6.798;2023-03-14T03:23:59;4.93;;;2.22;;
2177;SDS011;1095;50.992;6.798;2023-03-14T03:26:26;5.00;;;2.20;;
2177;SDS011;1095;50.992;6.798;2023-03-14T03:28:53;7.03;;;3.10;;
2177;SDS011;1095;50.992;6.798;2023-03-14T03:31:19;8.65;;;2.55;;
2177;SDS011;1095;50.992;6.798;2023-03-14T03:33:47;8.00;;;2.55;;
2177;SDS011;1095;50.992;6.798;2023-03-14T03:36:14;7.03;;;2.53;;
2177;SDS011;1095;50.992;6.798;2023-03-14T03:38:40;8.68;;;2.67;;
2177;SDS011;1095;50.992;6.798;2023-03-14T03:41:07;7.90;;;2.88;;
2177;SDS011;1095;50.992;6.798;2023-03-14T03:43:34;6.30;;;2.20;;
2177;SDS011;1095;50.992;6.798;2023-03-14T03:46:02;5.47;;;2.70;;
2177;SDS011;1095;50.992;6.798;2023-03-14T03:48:29;8.48;;;2.75;;
2177;SDS011;1095;50.992;6.798;2023-03-14T03:50:57;8.15;;;2.80;;
2177;SDS011;1095;50.992;6.798;2023-03-14T03:53:24;8.65;;;3.08;;
2177;SDS011;1095;50.992;6.798;2023-03-14T03:55:50;9.25;;;3.38;;
2177;SDS011;1095;50.992;6.798;2023-03-14T03:58:17;8.68;;;3.50;;
2177;SDS011;1095;50.992;6.798;2023-03-14T04:00:44;10.52;;;3.17;;
2177;SDS011;1095;50.992;6.798;2023-03-14T04:03:10;9.18;;;2.95;;
2177;SDS011;1095;50.992;6.798;2023-03-14T04:05:37;7.78;;;2.80;;
2177;SDS011;1095;50.992;6.798;2023-03-14T04:08:05;11.07;;;3.25;;
2177;SDS011;1095;50.992;6.798;2023-03-14T04:10:33;8.00;;;2.90;;
2177;SDS011;1095;50.992;6.798;2023-03-14T04:13:00;4.72;;;2.28;;
2177;SDS011;1095;50.992;6.798;2023-03-14T04:15:27;10.45;;;3.22;;
2177;SDS011;1095;50.992;6.798;2023-03-14T04:17:56;9.95;;;2.78;;
2177;SDS011;1095;50.992;6.798;2023-03-14T04:20:23;8.00;;;2.28;;
2177;SDS011;1095;50.992;6.798;2023-03-14T04:22:50;8.25;;;2.78;;
2177;SDS011;1095;50.992;6.798;2023-03-14T04:25:18;5.53;;;2.40;;
2177;SDS011;1095;50.992;6.798;2023-03-14T04:27:45;10.02;;;2.75;;
2177;SDS011;1095;50.992;6.798;2023-03-14T04:30:12;6.63;;;2.35;;
2177;SDS011;1095;50.992;6.798;2023-03-14T04:32:38;6.00;;;2.70;;
2177;SDS011;1095;50.992;6.798;2023-03-14T04:35:06;6.32;;;2.40;;
2177;SDS011;1095;50.992;6.798;2023-03-14T04:37:33;4.13;;;2.40;;
2177;SDS011;1095;50.992;6.798;2023-03-14T04:40:00;6.90;;;2.45;;
2177;SDS011;1095;50.992;6.798;2023-03-14T04:42:28;4.72;;;2.10;;
2177;SDS011;1095;50.992;6.798;2023-03-14T04:44:54;4.95;;;2.35;;
2177;SDS011;1095;50.992;6.798;2023-03-14T04:47:21;4.50;;;1.77;;
2177;SDS011;1095;50.992;6.798;2023-03-14T04:49:48;4.60;;;2.00;;
2177;SDS011;1095;50.992;6.798;2023-03-14T04:52:14;5.25;;;1.70;;
2177;SDS011;1095;50.992;6.798;2023-03-14T04:54:41;2.50;;;1.35;;
2177;SDS011;1095;50.992;6.798;2023-03-14T04:57:08;6.32;;;1.33;;
2177;SDS011;1095;50.992;6.798;2023-03-14T04:59:36;5.40;;;1.70;;
2177;SDS011;1095;50.992;6.798;2023-03-14T05:02:03;4.90;;;1.70;;
2177;SDS011;1095;50.992;6.798;2023-03-14T05:04:29;5.10;;;1.50;;
2177;SDS011;1095;50.992;6.798;2023-03-14T05:06:57;5.10;;;1.42;;
2177;SDS011;1095;50.992;6.798;2023-03-14T05:09:24;3.10;;;1.60;;
2177;SDS011;1095;50.992;6.798;2023-03-14T05:11:51;2.78;;;1.10;;
2177;SDS011;1095;50.992;6.798;2023-03-14T05:14:18;4.70;;;1.25;;
2177;SDS011;1095;50.992;6.798;2023-03-14T05:16:46;2.80;;;1.40;;
2177;SDS011;1095;50.992;6.798;2023-03-14T05:19:12;2.17;;;0.95;;
2177;SDS011;1095;50.992;6.798;2023-03-14T05:21:39;3.80;;;1.45;;
2177;SDS011;1095;50.992;6.798;2023-03-14T05:24:06;4.05;;;1.45;;
2177;SDS011;1095;50.992;6.798;2023-03-14T05:26:32;1.55;;;0.80;;
2177;SDS011;1095;50.992;6.798;2023-03-14T05:28:59;3.00;;;1.40;;
2177;SDS011;1095;50.992;6.798;2023-03-14T05:31:25;1.75;;;0.88;;
2177;SDS011;1095;50.992;6.798;2023-03-14T05:33:53;1.30;;;0.60;;
2177;SDS011;1095;50.992;6.798;2023-03-14T05:36:20;1.67;;;0.85;;
2177;SDS011;1095;50.992;6.798;2023-03-14T05:38:47;1.20;;;0.65;;
2177;SDS011;1095;50.992;6.798;2023-03-14T05:41:13;5.55;;;1.20;;
2177;SDS011;1095;50.992;6.798;2023-03-14T05:43:40;1.15;;;0.75;;
2177;SDS011;1095;50.992;6.798;2023-03-14T05:46:06;3.33;;;0.65;;
2177;SDS011;1095;50.992;6.798;2023-03-14T05:48:33;0.73;;;0.45;;
2177;SDS011;1095;50.992;6.798;2023-03-14T05:51:01;0.82;;;0.52;;
2177;SDS011;1095;50.992;6.798;2023-03-14T05:53:28;1.55;;;0.80;;
2177;SDS011;1095;50.992;6.798;2023-03-14T05:55:55;0.35;;;0.30;;
2177;SDS011;1095;50.992;6.798;2023-03-14T05:58:22;3.00;;;0.60;;
2177;SDS011;1095;50.992;6.798;2023-03-14T06:00:49;0.90;;;0.50;;
2177;SDS011;1095;50.992;6.798;2023-03-14T06:03:16;0.60;;;0.60;;
2177;SDS011;1095;50.992;6.798;2023-03-14T06:05:43;1.70;;;1.20;;
2177;SDS011;1095;50.992;6.798;2023-03-14T06:08:11;1.30;;;0.60;;
2177;SDS011;1095;50.992;6.798;2023-03-14T06:10:38;2.35;;;0.75;;
2177;SDS011;1095;50.992;6.798;2023-03-14T06:13:04;2.05;;;0.90;;
2177;SDS011;1095;50.992;6.798;2023-03-14T06:15:31;1.20;;;0.68;;
2177;SDS011;1095;50.992;6.798;2023-03-14T06:17:58;0.60;;;0.60;;
2177;SDS011;1095;50.992;6.798;2023-03-14T06:20:25;2.53;;;0.98;;
2177;SDS011;1095;50.992;6.798;2023-03-14T06:22:52;0.90;;;0.60;;
2177;SDS011;1095;50.992;6.798;2023-03-14T06:25:20;1.02;;;0.70;;
2177;SDS011;1095;50.992;6.798;2023-03-14T06:27:46;2.50;;;1.23;;
2177;SDS011;1095;50.992;6.798;2023-03-14T06:30:13;1.23;;;0.82;;
2177;SDS011;1095;50.992;6.798;2023-03-14T06:32:40;1.15;;;0.60;;
2177;SDS011;1095;50.992;6.798;2023-03-14T06:35:07;1.35;;;0.68;;
2177;SDS011;1095;50.992;6.798;2023-03-14T06:37:34;0.65;;;0.65;;
2177;SDS011;1095;50.992;6.798;2023-03-14T06:40:00;0.45;;;0.45;;
2177;SDS011;1095;50.992;6.798;2023-03-14T06:42:29;0.98;;;0.80;;
2177;SDS011;1095;50.992;6.798;2023-03-14T06:44:55;2.85;;;0.80;;
2177;SDS011;1095;50.992;6.798;2023-03-14T06:47:22;0.73;;;0.60;;
2177;SDS011;1095;50.992;6.798;2023-03-14T06:49:48;1.95;;;0.73;;
2177;SDS011;1095;50.992;6.798;2023-03-14T06:52:15;0.50;;;0.50;;
2177;SDS011;1095;50.992;6.798;2023-03-14T06:54:42;1.98;;;1.05;;
2177;SDS011;1095;50.992;6.798;2023-03-14T06:57:08;2.50;;;0.70;;
2177;SDS011;1095;50.992;6.798;2023-03-14T06:59:36;1.38;;;0.90;;
2177;SDS011;1095;50.992;6.798;2023-03-14T07:02:03;0.68;;;0.50;;
2177;SDS011;1095;50.992;6.798;2023-03-14T07:04:29;2.97;;;0.65;;
2177;SDS011;1095;50.992;6.798;2023-03-14T07:06:56;2.20;;;0.77;;
2177;SDS011;1095;50.992;6.798;2023-03-14T07:09:23;1.40;;;0.65;;
2177;SDS011;1095;50.992;6.798;2023-03-14T07:11:49;1.15;;;0.93;;
2177;SDS011;1095;50.992;6.798;2023-03-14T07:14:16;4.95;;;1.25;;
2177;SDS011;1095;50.992;6.798;2023-03-14T07:16:44;1.55;;;1.10;;
2177;SDS011;1095;50.992;6.798;2023-03-14T07:19:11;1.58;;;1.00;;
2177;SDS011;1095;50.992;6.798;2023-03-14T07:21:37;3.60;;;1.17;;
2177;SDS011;1095;50.992;6.798;2023-03-14T07:24:04;2.33;;;0.75;;
2177;SDS011;1095;50.992;6.798;2023-03-14T07:26:31;0.70;;;0.70;;
2177;SDS011;1095;50.992;6.798;2023-03-14T07:28:58;2.53;;;1.10;;
2177;SDS011;1095;50.992;6.798;2023-03-14T07:31:24;2.00;;;0.90;;
2177;SDS011;1095;50.992;6.798;2023-03-14T07:33:53;4.88;;;1.35;;
2177;SDS011;1095;50.992;6.798;2023-03-14T07:36:19;2.15;;;1.17;;
2177;SDS011;1095;50.992;6.798;2023-03-14T07:38:46;1.20;;;0.70;;
2177;SDS011;1095;50.992;6.798;2023-03-14T07:41:13;2.13;;;0.80;;
2177;SDS011;1095;50.992;6.798;2023-03-14T07:43:39;2.40;;;0.95;;
2177;SDS011;1095;50.992;6.798;2023-03-14T07:46:06;1.23;;;0.88;;
2177;SDS011;1095;50.992;6.798;2023-03-14T07:48:33;1.15;;;0.70;;
2177;SDS011;1095;50.992;6.798;2023-03-14T07:51:01;2.45;;;0.88;;
2177;SDS011;1095;50.992;6.798;2023-03-14T07:53:29;1.58;;;0.80;;
2177;SDS011;1095;50.992;6.798;2023-03-14T07:55:55;1.38;;;0.95;;
2177;SDS011;1095;50.992;6.798;2023-03-14T07:58:22;2.17;;;0.82;;
2177;SDS011;1095;50.992;6.798;2023-03-14T08:00:49;1.63;;;0.85;;
2177;SDS011;1095;50.992;6.798;2023-03-14T08:03:16;2.33;;;1.25;;
2177;SDS011;1095;50.992;6.798;2023-03-14T08:05:43;4.82;;;2.13;;
2177;SDS011;1095;50.992;6.798;2023-03-14T08:08:14;2.10;;;1.88;;
2177;SDS011;1095;50.992;6.798;2023-03-14T08:10:40;2.70;;;1.52;;
2177;SDS011;1095;50.992;6.798;2023-03-14T08:13:08;1.48;;;1.10;;
2177;SDS011;1095;50.992;6.798;2023-03-14T08:15:35;3.75;;;1.30;;
2177;SDS011;1095;50.992;6.798;2023-03-14T08:18:03;2.15;;;1.58;;
2177;SDS011;1095;50.992;6.798;2023-03-14T08:20:30;1.60;;;1.10;;
2177;SDS011;1095;50.992;6.798;2023-03-14T08:22:56;1.60;;;1.50;;
2177;SDS011;1095;50.992;6.798;2023-03-14T08:25:25;3.55;;;1.30;;
2177;SDS011;1095;50.992;6.798;2023-03-14T08:27:53;3.10;;;1.48;;
2177;SDS011;1095;50.992;6.798;2023-03-14T08:30:20;1.77;;;1.23;;
2177;SDS011;1095;50.992;6.798;2023-03-14T08:32:47;3.15;;;2.17;;
2177;SDS011;1095;50.992;6.798;2023-03-14T08:35:14;5.75;;;1.88;;
2177;SDS011;1095;50.992;6.798;2023-03-14T08:37:41;3.75;;;1.45;;
2177;SDS011;1095;50.992;6.798;2023-03-14T08:40:08;2.70;;;1.98;;
2177;SDS011;1095;50.992;6.798;2023-03-14T08:42:38;3.05;;;1.45;;
2177;SDS011;1095;50.992;6.798;2023-03-14T08:45:06;4.43;;;2.55;;
2177;SDS011;1095;50.992;6.798;2023-03-14T08:47:33;2.88;;;1.77;;
2177;SDS011;1095;50.992;6.798;2023-03-14T08:50:00;3.53;;;1.45;;
2177;SDS011;1095;50.992;6.798;2023-03-14T08:52:29;2.70;;;2.00;;
2177;SDS011;1095;50.992;6.798;2023-03-14T08:54:56;3.50;;;2.15;;
2177;SDS011;1095;50.992;6.798;2023-03-14T08:57:22;4.38;;;2.40;;
2177;SDS011;1095;50.992;6.798;2023-03-14T08:59:53;4.60;;;2.80;;
2177;SDS011;1095;50.992;6.798;2023-03-14T09:02:21;7.18;;;4.90;;
2177;SDS011;1095;50.992;6.798;2023-03-14T09:04:48;3.40;;;2.72;;
2177;SDS011;1095;50.992;6.798;2023-03-14T09:07:16;6.57;;;2.38;;
2177;SDS011;1095;50.992;6.798;2023-03-14T09:09:42;2.78;;;2.22;;
2177;SDS011;1095;50.992;6.798;2023-03-14T09:12:09;3.45;;;2.00;;
2177;SDS011;1095;50.992;6.798;2023-03-14T09:14:36;1.55;;;1.38;;
2177;SDS011;1095;50.992;6.798;2023-03-14T09:17:04;2.35;;;1.23;;
2177;SDS011;1095;50.992;6.798;2023-03-14T09:19:30;2.80;;;1.17;;
2177;SDS011;1095;50.992;6.798;2023-03-14T09:21:57;2.83;;;1.52;;
2177;SDS011;1095;50.992;6.798;2023-03-14T09:24:24;1.73;;;1.58;;
2177;SDS011;1095;50.992;6.798;2023-03-14T09:26:51;1.23;;;1.17;;
2177;SDS011;1095;50.992;6.798;2023-03-14T09:29:17;4.45;;;0.93;;
2177;SDS011;1095;50.992;6.798;2023-03-14T09:31:45;1.08;;;0.90;;
2177;SDS011;1095;50.992;6.798;2023-03-14T09:34:13;1.55;;;1.45;;
2177;SDS011;1095;50.992;6.798;2023-03-14T09:36:39;2.15;;;1.55;;
2177;SDS011;1095;50.992;6.798;2023-03-14T09:39:06;1.33;;;1.23;;
2177;SDS011;1095;50.992;6.798;2023-03-14T09:41:33;2.65;;;1.60;;
2177;SDS011;1095;50.992;6.798;2023-03-14T09:44:04;2.25;;;1.90;;
2177;SDS011;1095;50.992;6.798;2023-03-14T09:46:35;3.65;;;1.80;;
2177;SDS011;1095;50.992;6.798;2023-03-14T09:49:08;3.28;;;2.38;;
2177;SDS011;1095;50.992;6.798;2023-03-14T09:51:39;3.15;;;2.85;;
2177;SDS011;1095;50.992;6.798;2023-03-14T09:54:08;4.15;;;3.10;;
2177;SDS011;1095;50.992;6.798;2023-03-14T09:56:49;3.33;;;3.03;;
2177;SDS011;1095;50.992;6.798;2023-03-14T09:59:17;3.33;;;3.03;;
2177;SDS011;1095;50.992;6.798;2023-03-14T10:01:43;6.25;;;3.08;;
2177;SDS011;1095;50.992;6.798;2023-03-14T10:04:11;3.80;;;3.15;;
2177;SDS011;1095;50.992;6.798;2023-03-14T10:06:42;4.47;;;3.42;;
2177;SDS011;1095;50.992;6.798;2023-03-14T10:09:09;4.38;;;3.88;;
2177;SDS011;1095;50.992;6.798;2023-03-14T10:11:44;5.03;;;3.60;;
2177;SDS011;1095;50.992;6.798;2023-03-14T10:14:11;6.15;;;3.40;;
2177;SDS011;1095;50.992;6.798;2023-03-14T10:16:40;5.90;;;3.60;;
2177;SDS011;1095;50.992;6.798;2023-03-14T10:19:10;5.10;;;3.70;;
2177;SDS011;1095;50.992;6.798;2023-03-14T10:21:40;7.45;;;4.90;;
2177;SDS011;1095;50.992;6.798;2023-03-14T10:24:10;5.35;;;3.20;;
2177;SDS011;1095;50.992;6.798;2023-03-14T10:26:47;5.40;;;2.95;;
2177;SDS011;1095;50.992;6.798;2023-03-14T10:29:15;8.20;;;3.20;;
2177;SDS011;1095;50.992;6.798;2023-03-14T10:31:52;4.38;;;3.40;;
2177;SDS011;1095;50.992;6.798;2023-03-14T10:34:23;5.53;;;3.35;;
2177;SDS011;1095;50.992;6.798;2023-03-14T10:36:56;4.85;;;3.38;;
2177;SDS011;1095;50.992;6.798;2023-03-14T10:39:26;6.90;;;3.17;;
2177;SDS011;1095;50.992;6.798;2023-03-14T10:42:01;3.67;;;2.85;;
2177;SDS011;1095;50.992;6.798;2023-03-14T10:44:31;3.60;;;2.90;;
2177;SDS011;1095;50.992;6.798;2023-03-14T10:47:00;3.53;;;2.50;;
2177;SDS011;1095;50.992;6.798;2023-03-14T10:49:29;5.88;;;2.50;;
2177;SDS011;1095;50.992;6.798;2023-03-14T10:52:02;4.60;;;2.60;;
2177;SDS011;1095;50.992;6.798;2023-03-14T10:54:39;6.28;;;2.72;;
2177;SDS011;1095;50.992;6.798;2023-03-14T10:57:06;2.78;;;2.00;;
2177;SDS011;1095;50.992;6.798;2023-03-14T10:59:34;2.92;;;2.15;;
2177;SDS011;1095;50.992;6.798;2023-03-14T11:02:03;3.33;;;1.95;;
2177;SDS011;1095;50.992;6.798;2023-03-14T11:04:48;2.88;;;2.40;;
2177;SDS011;1095;50.992;6.798;2023-03-14T11:07:32;3.88;;;2.83;;
2177;SDS011;1095;50.992;6.798;2023-03-14T11:10:03;4.43;;;3.53;;
2177;SDS011;1095;50.992;6.798;2023-03-14T11:12:41;5.18;;;3.67;;
2177;SDS011;1095;50.992;6.798;2023-03-14T11:15:14;7.40;;;3.80;;
2177;SDS011;1095;50.992;6.798;2023-03-14T11:17:48;7.07;;;3.50;;
2177;SDS011;1095;50.992;6.798;2023-03-14T11:20:27;5.85;;;3.50;;
2177;SDS011;1095;50.992;6.798;2023-03-14T11:23:04;5.18;;;3.75;;
2177;SDS011;1095;50.992;6.798;2023-03-14T11:25:38;9.98;;;4.28;;
2177;SDS011;1095;50.992;6.798;2023-03-14T11:28:17;6.50;;;3.92;;
2177;SDS011;1095;50.992;6.798;2023-03-14T11:30:49;5.55;;;3.30;;
2177;SDS011;1095;50.992;6.798;2023-03-14T11:33:20;3.08;;;1.45;;
2177;SDS011;1095;50.992;6.798;2023-03-14T11:35:53;1.43;;;1.10;;
2177;SDS011;1095;50.992;6.798;2023-03-14T11:38:30;3.28;;;1.65;;
2177;SDS011;1095;50.992;6.798;2023-03-14T11:41:01;3.20;;;1.45;;
2177;SDS011;1095;50.992;6.798;2023-03-14T11:43:29;1.55;;;1.10;;
2177;SDS011;1095;50.992;6.798;2023-03-14T11:46:01;2.25;;;1.63;;
2177;SDS011;1095;50.992;6.798;2023-03-14T11:48:35;3.30;;;2.03;;
2177;SDS011;1095;50.992;6.798;2023-03-14T11:51:12;5.32;;;3.38;;
2177;SDS011;1095;50.992;6.798;2023-03-14T11:53:53;5.95;;;3.45;;
2177;SDS011;1095;50.992;6.798;2023-03-14T11:56:29;7.53;;;3.50;;
2177;SDS011;1095;50.992;6.798;2023-03-14T11:59:01;6.15;;;3.80;;
2177;SDS011;1095;50.992;6.798;2023-03-14T12:01:34;6.60;;;3.53;;
2177;SDS011;1095;50.992;6.798;2023-03-14T12:04:12;6.30;;;5.18;;
2177;SDS011;1095;50.992;6.798;2023-03-14T12:06:46;7.57;;;3.55;;
2177;SDS011;1095;50.992;6.798;2023-03-14T12:09:16;5.68;;;3.40;;
2177;SDS011;1095;50.992;6.798;2023-03-14T12:11:45;7.20;;;3.00;;
2177;SDS011;1095;50.992;6.798;2023-03-14T12:14:18;7.15;;;3.45;;
2177;SDS011;1095;50.992;6.798;2023-03-14T12:16:48;6.63;;;2.97;;
2177;SDS011;1095;50.992;6.798;2023-03-14T12:19:26;4.10;;;2.88;;
2177;SDS011;1095;50.992;6.798;2023-03-14T12:21:56;5.13;;;2.67;;
2177;SDS011;1095;50.992;6.798;2023-03-14T12:24:28;5.32;;;2.55;;
2177;SDS011;1095;50.992;6.798;2023-03-14T12:26:56;8.07;;;2.90;;
2177;SDS011;1095;50.992;6.798;2023-03-14T12:29:24;5.05;;;3.00;;
2177;SDS011;1095;50.992;6.798;2023-03-14T12:32:06;4.97;;;2.60;;
2177;SDS011;1095;50.992;6.798;2023-03-14T12:34:34;6.97;;;3.22;;
2177;SDS011;1095;50.992;6.798;2023-03-14T12:37:06;5.75;;;2.35;;
2177;SDS011;1095;50.992;6.798;2023-03-14T12:39:44;7.68;;;3.30;;
2177;SDS011;1095;50.992;6.798;2023-03-14T12:42:21;9.50;;;2.95;;
2177;SDS011;1095;50.992;6.798;2023-03-14T12:47:54;6.20;;;2.88;;
2177;SDS011;1095;50.992;6.798;2023-03-14T12:50:31;5.45;;;2.88;;
2177;SDS011;1095;50.992;6.798;2023-03-14T12:53:33;5.35;;;2.65;;
2177;SDS011;1095;50.992;6.798;2023-03-14T12:56:25;4.32;;;2.35;;
2177;SDS011;1095;50.992;6.798;2023-03-14T12:58:59;5.40;;;2.47;;
2177;SDS011;1095;50.992;6.798;2023-03-14T13:01:46;5.03;;;2.47;;
2177;SDS011;1095;50.992;6.798;2023-03-14T13:04:19;5.82;;;2.17;;
2177;SDS011;1095;50.992;6.798;2023-03-14T13:06:54;6.35;;;2.80;;
2177;SDS011;1095;50.992;6.798;2023-03-14T13:09:35;9.30;;;2.55;;
2177;SDS011;1095;50.992;6.798;2023-03-14T13:12:17;4.90;;;2.40;;
2177;SDS011;1095;50.992;6.798;2023-03-14T13:14:49;5.18;;;2.50;;
2177;SDS011;1095;50.992;6.798;2023-03-14T13:17:19;4.80;;;2.67;;
2177;SDS011;1095;50.992;6.798;2023-03-14T13:19:51;4.90;;;2.08;;
2177;SDS011;1095;50.992;6.798;2023-03-14T13:22:23;4.80;;;2.28;;
2177;SDS011;1095;50.992;6.798;2023-03-14T13:24:58;5.28;;;2.70;;
2177;SDS011;1095;50.992;6.798;2023-03-14T13:27:29;4.72;;;1.95;;
2177;SDS011;1095;50.992;6.798;2023-03-14T13:29:57;5.55;;;2.25;;
2177;SDS011;1095;50.992;6.798;2023-03-14T13:32:26;7.55;;;2.28;;
2177;SDS011;1095;50.992;6.798;2023-03-14T13:34:55;6.22;;;2.72;;
2177;SDS011;1095;50.992;6.798;2023-03-14T13:37:23;11.32;;;3.08;;
2177;SDS011;1095;50.992;6.798;2023-03-14T13:39:51;8.70;;;2.92;;
2177;SDS011;1095;50.992;6.798;2023-03-14T13:42:20;9.35;;;3.95;;
2177;SDS011;1095;50.992;6.798;2023-03-14T13:44:52;19.42;;;4.20;;
2177;SDS011;1095;50.992;6.798;2023-03-14T13:47:21;14.13;;;3.95;;
2177;SDS011;1095;50.992;6.798;2023-03-14T13:49:49;18.10;;;4.18;;
2177;SDS011;1095;50.992;6.798;2023-03-14T13:52:23;12.40;;;3.40;;
2177;SDS011;1095;50.992;6.798;2023-03-14T13:54:54;18.05;;;3.70;;
2177;SDS011;1095;50.992;6.798;2023-03-14T13:57:21;18.20;;;4.28;;
2177;SDS011;1095;50.992;6.798;2023-03-14T13:59:59;18.50;;;4.07;;
2177;SDS011;1095;50.992;6.798;2023-03-14T14:02:30;15.55;;;4.38;;
2177;SDS011;1095;50.992;6.798;2023-03-14T14:04:58;15.90;;;4.28;;
2177;SDS011;1095;50.992;6.798;2023-03-14T14:07:25;16.65;;;4.25;;
2177;SDS011;1095;50.992;6.798;2023-03-14T14:09:52;15.55;;;3.90;;
2177;SDS011;1095;50.992;6.798;2023-03-14T14:12:21;14.10;;;3.92;;
2177;SDS011;1095;50.992;6.798;2023-03-14T14:14:54;18.52;;;3.85;;
2177;SDS011;1095;50.992;6.798;2023-03-14T14:17:29;13.80;;;4.43;;
2177;SDS011;1095;50.992;6.798;2023-03-14T14:19:59;16.27;;;3.65;;
2177;SDS011;1095;50.992;6.798;2023-03-14T14:22:28;13.15;;;3.65;;
2177;SDS011;1095;50.992;6.798;2023-03-14T14:24:56;14.93;;;3.47;;
2177;SDS011;1095;50.992;6.798;2023-03-14T14:27:24;16.25;;;3.83;;
2177;SDS011;1095;50.992;6.798;2023-03-14T14:29:56;15.00;;;4.45;;
2177;SDS011;1095;50.992;6.798;2023-03-14T14:32:27;11.70;;;3.58;;
2177;SDS011;1095;50.992;6.798;2023-03-14T14:35:00;14.85;;;3.72;;
2177;SDS011;1095;50.992;6.798;2023-03-14T14:37:29;16.02;;;3.83;;
2177;SDS011;1095;50.992;6.798;2023-03-14T14:39:58;20.40;;;4.20;;
2177;SDS011;1095;50.992;6.798;2023-03-14T14:42:27;15.45;;;3.75;;
2177;SDS011;1095;50.992;6.798;2023-03-14T14:44:56;17.48;;;3.67;;
2177;SDS011;1095;50.992;6.798;2023-03-14T14:47:26;13.20;;;3.47;;
2177;SDS011;1095;50.992;6.798;2023-03-14T14:49:54;17.35;;;4.20;;
2177;SDS011;1095;50.992;6.798;2023-03-14T14:52:30;18.58;;;5.10;;
2177;SDS011;1095;50.992;6.798;2023-03-14T14:55:00;19.58;;;4.03;;
2177;SDS011;1095;50.992;6.798;2023-03-14T14:57:29;17.08;;;3.88;;
2177;SDS011;1095;50.992;6.798;2023-03-14T15:02:35;15.45;;;5.03;;
2177;SDS011;1095;50.992;6.798;2023-03-14T15:05:05;16.88;;;3.95;;
2177;SDS011;1095;50.992;6.798;2023-03-14T15:10:04;16.23;;;4.03;;
2177;SDS011;1095;50.992;6.798;2023-03-14T15:12:32;14.25;;;4.47;;
2177;SDS011;1095;50.992;6.798;2023-03-14T15:14:58;11.05;;;4.28;;
2177;SDS011;1095;50.992;6.798;2023-03-14T15:17:25;17.48;;;5.10;;
2177;SDS011;1095;50.992;6.798;2023-03-14T15:19:53;17.27;;;4.20;;
2177;SDS011;1095;50.992;6.798;2023-03-14T15:22:20;25.88;;;4.50;;
2177;SDS011;1095;50.992;6.798;2023-03-14T15:24:47;19.48;;;4.53;;
2177;SDS011;1095;50.992;6.798;2023-03-14T15:27:14;15.45;;;4.20;;
2177;SDS011;1095;50.992;6.798;2023-03-14T15:29:43;19.42;;;4.80;;
2177;SDS011;1095;50.992;6.798;2023-03-14T15:32:10;16.88;;;4.22;;
2177;SDS011;1095;50.992;6.798;2023-03-14T15:34:38;18.55;;;3.85;;
2177;SDS011;1095;50.992;6.798;2023-03-14T15:37:10;18.48;;;4.93;;
2177;SDS011;1095;50.992;6.798;2023-03-14T15:39:42;18.85;;;3.97;;